createdAt,value
2023-04-17T00:02:10.600Z,30.88
2023-04-17T00:04:38.304Z,29.27
2023-04-17T00:07:05.959Z,23.27
2023-04-17T00:09:33.125Z,26.75
2023-04-17T00:12:00.921Z,27.88
2023-04-17T00:14:28.241Z,25.60
2023-04-17T00:16:55.470Z,24.17
2023-04-17T00:19:22.842Z,31.70
2023-04-17T00:21:50.380Z,30.10
2023-04-17T00:24:17.717Z,36.42
2023-04-17T00:26:44.942Z,24.10
2023-04-17T00:29:12.404Z,33.92
2023-04-17T00:31:40.013Z,38.80
2023-04-17T00:34:07.191Z,19.85
2023-04-17T00:36:34.475Z,22.45
2023-04-17T00:39:01.790Z,24.55
2023-04-17T00:41:29.078Z,29.95
2023-04-17T00:43:56.334Z,27.40
2023-04-17T00:46:24.320Z,20.05
2023-04-17T00:48:51.599Z,26.88
2023-04-17T00:51:18.763Z,23.85
2023-04-17T00:53:46.584Z,21.10
2023-04-17T00:56:13.983Z,24.98
2023-04-17T00:58:41.414Z,28.15
2023-04-17T01:01:09.267Z,26.60
2023-04-17T01:03:36.769Z,28.27
2023-04-17T01:06:04.232Z,21.02
2023-04-17T01:08:39.982Z,25.52
2023-04-17T01:11:08.793Z,23.02
2023-04-17T01:13:44.422Z,20.15
2023-04-17T01:16:12.473Z,24.45
2023-04-17T01:18:39.829Z,23.92
2023-04-17T01:21:07.080Z,25.40
2023-04-17T01:23:51.947Z,23.90
2023-04-17T01:26:21.280Z,22.48
2023-04-17T01:28:56.328Z,27.30
2023-04-17T01:31:24.709Z,29.38
2023-04-17T01:33:53.176Z,31.35
2023-04-17T01:36:20.475Z,32.20
2023-04-17T01:38:47.695Z,28.25
2023-04-17T01:41:14.908Z,36.88
2023-04-17T01:43:43.917Z,24.80
2023-04-17T01:46:11.902Z,29.98
2023-04-17T01:48:39.281Z,33.30
2023-04-17T01:51:06.596Z,22.52
2023-04-17T01:53:34.545Z,22.60
2023-04-17T01:56:01.865Z,35.15
2023-04-17T01:58:30.419Z,28.67
2023-04-17T02:00:57.719Z,31.08
2023-04-17T02:03:25.155Z,19.05
2023-04-17T02:05:53.836Z,32.25
2023-04-17T02:08:21.436Z,26.42
2023-04-17T02:10:48.702Z,25.88
2023-04-17T02:13:16.203Z,26.98
2023-04-17T02:15:43.790Z,30.33
2023-04-17T02:18:11.088Z,31.17
2023-04-17T02:20:38.694Z,34.38
2023-04-17T02:23:06.869Z,33.85
2023-04-17T02:25:36.274Z,33.33
2023-04-17T02:28:04.140Z,28.67
2023-04-17T02:30:31.455Z,30.92
2023-04-17T02:32:59.451Z,32.63
2023-04-17T02:35:29.169Z,42.05
2023-04-17T02:37:57.887Z,30.40
2023-04-17T02:40:24.985Z,35.55
2023-04-17T02:42:59.288Z,24.88
2023-04-17T02:45:26.552Z,23.50
2023-04-17T02:47:54.358Z,23.63
2023-04-17T02:50:21.693Z,22.77
2023-04-17T02:55:32.843Z,23.92
2023-04-17T02:58:00.168Z,22.83
2023-04-17T03:00:27.921Z,28.55
2023-04-17T03:02:55.342Z,26.25
2023-04-17T03:05:23.326Z,25.23
2023-04-17T03:07:52.069Z,27.38
2023-04-17T03:10:19.654Z,23.40
2023-04-17T03:12:46.861Z,31.40
2023-04-17T03:15:14.190Z,23.50
2023-04-17T03:17:41.389Z,26.45
2023-04-17T03:20:09.336Z,25.52
2023-04-17T03:22:36.729Z,31.63
2023-04-17T03:25:05.885Z,30.77
2023-04-17T03:27:41.454Z,25.48
2023-04-17T03:30:09.761Z,28.25
2023-04-17T03:32:38.099Z,29.55
2023-04-17T03:35:05.655Z,28.35
2023-04-17T03:37:34.431Z,29.95
2023-04-17T03:40:02.201Z,24.33
2023-04-17T03:42:30.690Z,22.10
2023-04-17T03:44:59.955Z,28.90
2023-04-17T03:47:29.378Z,30.15
2023-04-17T03:49:57.476Z,30.02
2023-04-17T03:52:26.213Z,31.00
2023-04-17T03:54:58.038Z,29.77
2023-04-17T03:57:26.338Z,29.90
2023-04-17T03:59:54.162Z,32.30
2023-04-17T04:02:22.904Z,32.10
2023-04-17T04:04:51.298Z,28.85
2023-04-17T04:07:19.194Z,25.45
2023-04-17T04:09:46.404Z,37.17
2023-04-17T04:12:14.451Z,31.00
2023-04-17T04:14:44.888Z,29.60
2023-04-17T04:17:13.373Z,27.83
2023-04-17T04:19:41.056Z,29.00
2023-04-17T04:22:08.228Z,29.30
2023-04-17T04:24:42.734Z,23.92
2023-04-17T04:27:12.928Z,27.40
2023-04-17T04:29:40.548Z,26.73
2023-04-17T04:32:13.464Z,23.90
2023-04-17T04:34:44.580Z,28.05
2023-04-17T04:37:15.489Z,16.63
2023-04-17T04:39:47.141Z,23.03
2023-04-17T04:42:21.751Z,25.30
2023-04-17T04:45:15.956Z,19.23
2023-04-17T04:47:44.572Z,18.48
2023-04-17T04:50:12.524Z,14.90
2023-04-17T04:52:39.880Z,19.98
2023-04-17T04:55:15.707Z,22.00
2023-04-17T04:57:49.016Z,20.38
2023-04-17T05:00:18.028Z,18.55
2023-04-17T05:02:47.545Z,20.67
2023-04-17T05:05:16.685Z,17.77
2023-04-17T05:07:43.843Z,19.90
2023-04-17T05:10:14.805Z,19.63
2023-04-17T05:12:48.374Z,23.05
2023-04-17T05:15:16.728Z,23.77
2023-04-17T05:17:44.748Z,30.20
2023-04-17T05:20:15.301Z,17.13
2023-04-17T05:22:49.712Z,22.05
2023-04-17T05:25:17.073Z,20.77
2023-04-17T05:27:44.288Z,21.40
2023-04-17T05:30:13.035Z,15.10
2023-04-17T05:32:41.732Z,14.98
2023-04-17T05:35:22.454Z,24.13
2023-04-17T05:37:51.405Z,18.55
2023-04-17T05:40:18.658Z,17.20
2023-04-17T05:42:45.841Z,18.85
2023-04-17T05:45:13.664Z,17.90
2023-04-17T05:47:41.389Z,19.15
2023-04-17T05:50:09.172Z,15.30
2023-04-17T05:52:39.432Z,23.02
2023-04-17T05:55:09.450Z,19.57
2023-04-17T05:57:37.891Z,18.55
2023-04-17T06:00:10.574Z,24.08
2023-04-17T06:02:43.127Z,16.33
2023-04-17T06:05:16.367Z,23.38
2023-04-17T06:07:44.293Z,18.05
2023-04-17T06:10:11.612Z,22.38
2023-04-17T06:12:39.233Z,29.38
2023-04-17T06:15:10.028Z,19.55
2023-04-17T06:17:38.036Z,20.50
2023-04-17T06:20:09.640Z,17.08
2023-04-17T06:22:37.331Z,18.30
2023-04-17T06:25:04.702Z,17.08
2023-04-17T06:27:31.989Z,18.35
2023-04-17T06:30:00.456Z,23.17
2023-04-17T06:32:29.844Z,19.45
2023-04-17T06:34:59.390Z,17.35
2023-04-17T06:37:42.255Z,21.42
2023-04-17T06:40:12.107Z,28.25
2023-04-17T06:42:39.378Z,20.50
2023-04-17T06:45:11.492Z,23.02
2023-04-17T06:47:38.714Z,20.90
2023-04-17T06:50:06.384Z,26.92
2023-04-17T06:52:35.098Z,16.23
2023-04-17T06:55:02.510Z,28.10
2023-04-17T06:57:29.725Z,16.45
2023-04-17T06:59:56.910Z,21.80
2023-04-17T07:02:24.349Z,19.58
2023-04-17T07:04:53.223Z,24.65
2023-04-17T07:07:20.494Z,20.58
2023-04-17T07:09:48.212Z,29.92
2023-04-17T07:12:15.848Z,18.75
2023-04-17T07:14:43.151Z,23.25
2023-04-17T07:17:10.308Z,23.52
2023-04-17T07:19:38.633Z,19.88
2023-04-17T07:22:05.773Z,21.70
2023-04-17T07:24:36.220Z,18.63
2023-04-17T07:27:04.240Z,21.75
2023-04-17T07:29:31.673Z,27.98
2023-04-17T07:31:58.936Z,23.05
2023-04-17T07:34:26.188Z,26.30
2023-04-17T07:36:53.865Z,20.30
2023-04-17T07:39:21.355Z,18.88
2023-04-17T07:41:49.520Z,20.30
2023-04-17T07:44:16.797Z,17.88
2023-04-17T07:46:45.126Z,22.45
2023-04-17T07:49:12.669Z,21.73
2023-04-17T07:51:41.224Z,16.67
2023-04-17T07:54:08.651Z,19.77
2023-04-17T07:56:36.530Z,19.02
2023-04-17T07:59:04.640Z,18.15
2023-04-17T08:01:32.040Z,24.10
2023-04-17T08:03:59.796Z,22.23
2023-04-17T08:06:27.469Z,34.80
2023-04-17T08:08:54.731Z,20.45
2023-04-17T08:11:22.292Z,21.15
2023-04-17T08:13:50.052Z,23.55
2023-04-17T08:16:17.682Z,23.92
2023-04-17T08:18:45.377Z,24.33
2023-04-17T08:21:12.669Z,25.10
2023-04-17T08:23:40.765Z,19.90
2023-04-17T08:26:08.003Z,22.02
2023-04-17T08:28:35.391Z,24.35
2023-04-17T08:31:02.747Z,20.67
2023-04-17T08:33:29.936Z,21.67
2023-04-17T08:35:57.088Z,19.85
2023-04-17T08:38:24.549Z,22.27
2023-04-17T08:40:53.719Z,22.67
2023-04-17T08:43:22.002Z,23.55
2023-04-17T08:45:56.511Z,27.90
2023-04-17T08:48:24.383Z,21.40
2023-04-17T08:50:52.797Z,22.95
2023-04-17T08:53:20.472Z,20.35
2023-04-17T08:55:48.188Z,20.02
2023-04-17T08:58:15.525Z,21.70
2023-04-17T09:00:43.676Z,23.63
2023-04-17T09:03:12.284Z,23.70
2023-04-17T09:05:45.815Z,21.95
2023-04-17T09:08:17.152Z,19.80
2023-04-17T09:10:45.618Z,21.65
2023-04-17T09:13:17.352Z,32.97
2023-04-17T09:15:45.494Z,21.92
2023-04-17T09:18:30.921Z,28.42
2023-04-17T09:20:59.662Z,29.23
2023-04-17T09:23:27.637Z,22.00
2023-04-17T09:26:13.953Z,23.73
2023-04-17T09:28:41.450Z,25.08
2023-04-17T09:31:18.407Z,26.92
2023-04-17T09:33:58.628Z,20.67
2023-04-17T09:36:27.370Z,17.63
2023-04-17T09:38:55.008Z,21.23
2023-04-17T09:41:25.489Z,17.65
2023-04-17T09:43:54.781Z,23.70
2023-04-17T09:46:31.758Z,23.15
2023-04-17T09:49:10.684Z,22.77
2023-04-17T09:51:38.651Z,19.42
2023-04-17T09:54:10.005Z,20.08
2023-04-17T09:56:37.930Z,28.45
2023-04-17T09:59:05.861Z,16.05
2023-04-17T10:01:33.901Z,20.40
2023-04-17T10:04:01.955Z,23.98
2023-04-17T10:06:30.949Z,21.40
2023-04-17T10:08:58.460Z,20.50
2023-04-17T10:11:28.157Z,23.60
2023-04-17T10:14:04.561Z,25.35
2023-04-17T10:16:38.502Z,21.80
2023-04-17T10:19:25.070Z,15.95
2023-04-17T10:22:11.614Z,16.75
2023-04-17T10:24:39.042Z,19.88
2023-04-17T10:27:28.493Z,22.50
2023-04-17T10:29:57.070Z,21.58
2023-04-17T10:32:26.072Z,23.67
2023-04-17T10:34:54.142Z,22.98
2023-04-17T10:37:23.272Z,18.42
2023-04-17T10:39:51.655Z,17.10
2023-04-17T10:42:20.191Z,20.55
2023-04-17T10:44:47.867Z,18.67
2023-04-17T10:47:15.334Z,23.05
2023-04-17T10:49:51.772Z,21.42
2023-04-17T10:52:40.731Z,25.33
2023-04-17T10:55:09.397Z,19.80
2023-04-17T10:57:55.927Z,16.75
2023-04-17T11:00:38.927Z,18.52
2023-04-17T11:03:06.933Z,16.23
2023-04-17T11:05:35.783Z,16.65
2023-04-17T11:08:03.196Z,20.30
2023-04-17T11:10:30.900Z,17.73
2023-04-17T11:12:58.132Z,18.45
2023-04-17T11:15:32.044Z,22.17
2023-04-17T11:18:00.092Z,18.05
2023-04-17T11:20:28.396Z,20.42
2023-04-17T11:22:56.125Z,17.63
2023-04-17T11:25:24.605Z,25.83
2023-04-17T11:27:52.782Z,15.63
2023-04-17T11:30:27.507Z,20.65
2023-04-17T11:32:54.785Z,20.08
2023-04-17T11:35:24.830Z,16.08
2023-04-17T11:38:24.677Z,20.55
2023-04-17T11:40:51.866Z,15.63
2023-04-17T11:43:20.140Z,17.02
2023-04-17T11:45:48.405Z,22.25
2023-04-17T11:48:16.146Z,18.08
2023-04-17T11:50:44.729Z,17.50
2023-04-17T11:53:16.330Z,18.95
2023-04-17T11:55:44.075Z,23.67
2023-04-17T11:58:12.222Z,19.63
2023-04-17T12:00:40.644Z,16.25
2023-04-17T12:03:26.822Z,20.95
2023-04-17T12:06:04.387Z,20.58
2023-04-17T12:08:32.086Z,16.52
2023-04-17T12:10:59.303Z,19.63
2023-04-17T12:13:26.688Z,16.30
2023-04-17T12:15:55.024Z,18.75
2023-04-17T12:18:22.106Z,15.68
2023-04-17T12:20:49.306Z,17.65
2023-04-17T12:23:16.509Z,22.50
2023-04-17T12:25:43.665Z,18.08
2023-04-17T12:28:10.824Z,17.33
2023-04-17T12:30:39.730Z,15.20
2023-04-17T12:33:07.134Z,15.55
2023-04-17T12:35:34.584Z,17.83
2023-04-17T12:38:01.889Z,11.70
2023-04-17T12:40:29.072Z,20.77
2023-04-17T12:42:56.416Z,14.45
2023-04-17T12:45:23.722Z,17.08
2023-04-17T12:47:51.004Z,16.60
2023-04-17T12:50:18.242Z,15.52
2023-04-17T12:52:45.460Z,14.82
2023-04-17T12:55:12.702Z,16.65
2023-04-17T12:57:41.456Z,12.38
2023-04-17T13:00:09.473Z,12.25
2023-04-17T13:02:37.321Z,14.05
2023-04-17T13:05:07.714Z,21.38
2023-04-17T13:07:34.905Z,16.50
2023-04-17T13:10:02.024Z,17.00
2023-04-17T13:12:29.165Z,16.50
2023-04-17T13:14:57.470Z,14.50
2023-04-17T13:17:25.306Z,18.73
2023-04-17T13:19:52.630Z,17.45
2023-04-17T13:22:20.561Z,15.43
2023-04-17T13:24:47.738Z,23.88
2023-04-17T13:27:14.971Z,14.45
2023-04-17T13:29:42.245Z,17.50
2023-04-17T13:32:10.307Z,18.98
2023-04-17T13:34:37.567Z,16.95
2023-04-17T13:37:04.899Z,17.90
2023-04-17T13:39:32.213Z,17.77
2023-04-17T13:41:59.380Z,18.58
2023-04-17T13:44:26.757Z,12.77
2023-04-17T13:46:54.000Z,13.75
2023-04-17T13:49:21.468Z,14.27
2023-04-17T13:51:48.745Z,18.50
2023-04-17T13:54:15.965Z,16.95
2023-04-17T13:56:43.442Z,16.52
2023-04-17T13:59:11.028Z,17.30
2023-04-17T14:01:38.680Z,16.02
2023-04-17T14:04:06.289Z,17.38
2023-04-17T14:06:34.772Z,16.48
2023-04-17T14:09:02.239Z,14.00
2023-04-17T14:11:29.525Z,13.98
2023-04-17T14:13:56.770Z,14.48
2023-04-17T14:16:24.171Z,13.05
2023-04-17T14:18:51.430Z,15.02
2023-04-17T14:21:18.735Z,15.90
2023-04-17T14:23:46.112Z,18.98
2023-04-17T14:26:13.556Z,22.92
2023-04-17T14:28:40.912Z,19.33
2023-04-17T14:31:08.194Z,17.05
2023-04-17T14:33:35.555Z,15.50
2023-04-17T14:36:04.494Z,13.85
2023-04-17T14:38:32.949Z,17.48
2023-04-17T14:41:00.256Z,18.48
2023-04-17T14:43:28.284Z,16.35
2023-04-17T14:45:56.075Z,18.10
2023-04-17T14:48:24.166Z,17.65
2023-04-17T14:50:51.784Z,19.70
2023-04-17T14:53:21.493Z,17.85
2023-04-17T14:55:49.135Z,16.88
2023-04-17T14:58:16.248Z,14.93
2023-04-17T15:00:43.436Z,20.00
2023-04-17T15:03:10.820Z,20.10
2023-04-17T15:05:38.093Z,19.00
2023-04-17T15:08:05.401Z,20.55
2023-04-17T15:10:44.149Z,13.70
2023-04-17T15:13:11.770Z,20.70
2023-04-17T15:15:40.014Z,18.48
2023-04-17T15:18:07.412Z,16.73
2023-04-17T15:20:36.386Z,15.90
2023-04-17T15:23:03.781Z,13.85
2023-04-17T15:25:31.079Z,15.25
2023-04-17T15:27:58.273Z,15.65
2023-04-17T15:30:25.588Z,16.02
2023-04-17T15:32:52.894Z,13.63
2023-04-17T15:35:20.259Z,13.57
2023-04-17T15:37:48.447Z,14.90
2023-04-17T15:40:16.506Z,17.75
2023-04-17T15:42:44.035Z,15.68
2023-04-17T15:45:11.409Z,17.55
2023-04-17T15:47:38.646Z,17.13
2023-04-17T15:50:10.716Z,13.57
2023-04-17T15:52:37.889Z,11.95
2023-04-17T15:55:06.119Z,13.40
2023-04-17T15:57:33.341Z,13.18
2023-04-17T16:00:02.723Z,17.40
2023-04-17T16:02:37.442Z,14.45
2023-04-17T16:05:05.012Z,18.45
2023-04-17T16:07:32.984Z,16.83
2023-04-17T16:10:00.289Z,16.50
2023-04-17T16:12:28.283Z,13.77
2023-04-17T16:14:55.544Z,14.10
2023-04-17T16:17:22.809Z,19.17
2023-04-17T16:19:50.714Z,18.48
2023-04-17T16:22:19.295Z,12.93
2023-04-17T16:24:46.613Z,15.15
2023-04-17T16:27:13.775Z,17.90
2023-04-17T16:29:41.091Z,14.32
2023-04-17T16:32:08.336Z,14.38
2023-04-17T16:34:35.506Z,10.95
2023-04-17T16:37:03.396Z,9.65
2023-04-17T16:39:30.499Z,13.93
2023-04-17T16:41:57.808Z,14.93
2023-04-17T16:44:28.212Z,13.55
2023-04-17T16:47:12.677Z,9.57
2023-04-17T16:49:41.577Z,13.32
2023-04-17T16:52:08.830Z,16.60
2023-04-17T16:54:36.026Z,11.43
2023-04-17T16:57:03.348Z,11.55
2023-04-17T16:59:30.746Z,11.88
2023-04-17T17:01:59.083Z,10.27
2023-04-17T17:04:27.523Z,12.02
2023-04-17T17:06:55.836Z,11.25
2023-04-17T17:09:22.984Z,11.23
2023-04-17T17:11:50.438Z,8.27
2023-04-17T17:14:17.531Z,17.45
2023-04-17T17:16:44.726Z,7.88
2023-04-17T17:19:12.394Z,8.15
2023-04-17T17:21:39.806Z,9.43
2023-04-17T17:24:07.105Z,8.90
2023-04-17T17:26:39.287Z,12.35
2023-04-17T17:29:13.290Z,11.43
2023-04-17T17:31:41.020Z,12.73
2023-04-17T17:34:22.434Z,16.05
2023-04-17T17:36:53.022Z,12.38
2023-04-17T17:39:21.731Z,11.52
2023-04-17T17:41:49.156Z,8.90
2023-04-17T17:44:16.431Z,9.55
2023-04-17T17:46:43.682Z,8.00
2023-04-17T17:49:10.811Z,7.45
2023-04-17T17:51:38.049Z,10.65
2023-04-17T17:54:05.279Z,8.75
2023-04-17T17:56:32.384Z,8.68
2023-04-17T17:58:59.520Z,9.68
2023-04-17T18:01:26.789Z,9.00
2023-04-17T18:03:54.359Z,10.18
2023-04-17T18:06:21.741Z,10.82
2023-04-17T18:08:49.019Z,7.65
2023-04-17T18:11:16.242Z,21.88
2023-04-17T18:13:43.410Z,8.85
2023-04-17T18:16:11.031Z,8.77
2023-04-17T18:18:38.843Z,15.88
2023-04-17T18:21:07.021Z,8.43
2023-04-17T18:23:34.502Z,10.43
2023-04-17T18:26:02.606Z,15.70
2023-04-17T18:28:29.778Z,11.60
2023-04-17T18:30:57.055Z,15.77
2023-04-17T18:33:24.587Z,13.40
2023-04-17T18:35:51.947Z,14.98
2023-04-17T18:38:19.157Z,17.38
2023-04-17T18:40:46.318Z,17.38
2023-04-17T18:43:13.453Z,18.80
2023-04-17T18:45:41.686Z,19.98
2023-04-17T18:48:09.103Z,17.65
2023-04-17T18:50:38.309Z,23.30
2023-04-17T18:53:05.520Z,17.60
2023-04-17T18:55:33.109Z,19.92
2023-04-17T18:58:00.286Z,19.65
2023-04-17T19:00:27.580Z,14.20
2023-04-17T19:02:54.918Z,19.63
2023-04-17T19:05:24.046Z,17.55
2023-04-17T19:07:51.843Z,16.80
2023-04-17T19:10:19.171Z,17.42
2023-04-17T19:12:46.892Z,20.05
2023-04-17T19:15:14.170Z,19.08
2023-04-17T19:17:41.404Z,17.90
2023-04-17T19:20:09.137Z,20.35
2023-04-17T19:22:36.284Z,18.20
2023-04-17T19:25:03.534Z,13.85
2023-04-17T19:27:30.765Z,20.83
2023-04-17T19:29:57.987Z,20.25
2023-04-17T19:32:25.629Z,26.35
2023-04-17T19:34:52.833Z,16.35
2023-04-17T19:37:20.093Z,18.08
2023-04-17T19:39:47.300Z,19.35
2023-04-17T19:42:14.445Z,19.75
2023-04-17T19:44:41.610Z,16.35
2023-04-17T19:47:08.870Z,19.85
2023-04-17T19:49:36.061Z,17.42
2023-04-17T19:52:03.322Z,16.75
2023-04-17T19:54:30.637Z,17.58
2023-04-17T19:56:57.773Z,22.63
2023-04-17T19:59:24.921Z,18.42
2023-04-17T20:01:52.533Z,17.95
2023-04-17T20:04:19.886Z,16.77
2023-04-17T20:06:47.425Z,17.85
2023-04-17T20:09:15.296Z,15.15
2023-04-17T20:11:42.711Z,14.15
2023-04-17T20:14:11.138Z,12.77
2023-04-17T20:16:38.435Z,18.33
2023-04-17T20:19:05.710Z,15.82
2023-04-17T20:21:32.887Z,21.83
2023-04-17T20:24:00.150Z,13.98
2023-04-17T20:26:27.377Z,14.95
2023-04-17T20:28:54.721Z,22.88
2023-04-17T20:31:22.008Z,14.18
2023-04-17T20:33:49.258Z,17.13
2023-04-17T20:36:16.636Z,16.38
2023-04-17T20:38:44.087Z,16.42
2023-04-17T20:41:11.235Z,17.45
2023-04-17T20:43:38.407Z,15.95
2023-04-17T20:46:07.876Z,17.55
2023-04-17T20:48:35.055Z,14.45
2023-04-17T20:51:05.269Z,19.10
2023-04-17T20:53:32.907Z,16.27
2023-04-17T20:56:00.257Z,18.05
2023-04-17T20:58:27.484Z,14.10
2023-04-17T21:01:01.088Z,14.18
2023-04-17T21:03:31.909Z,16.83
2023-04-17T21:05:59.780Z,14.63
2023-04-17T21:08:27.262Z,17.60
2023-04-17T21:10:54.621Z,17.30
2023-04-17T21:13:22.697Z,19.92
2023-04-17T21:15:49.947Z,16.92
2023-04-17T21:18:17.037Z,17.38
2023-04-17T21:20:44.238Z,17.63
2023-04-17T21:23:11.427Z,18.83
2023-04-17T21:25:38.732Z,23.67
2023-04-17T21:28:05.967Z,22.67
2023-04-17T21:30:33.149Z,14.77
2023-04-17T21:33:00.397Z,17.00
2023-04-17T21:35:27.774Z,18.55
2023-04-17T21:37:55.174Z,23.35
2023-04-17T21:40:22.410Z,16.48
2023-04-17T21:42:49.561Z,18.77
2023-04-17T21:45:16.699Z,19.42
2023-04-17T21:47:43.876Z,15.80
2023-04-17T21:50:11.188Z,15.82
2023-04-17T21:52:38.676Z,18.20
2023-04-17T21:55:07.747Z,18.38
2023-04-17T21:57:35.192Z,19.42
2023-04-17T22:00:03.068Z,18.90
2023-04-17T22:02:34.103Z,20.05
2023-04-17T22:05:01.334Z,19.40
2023-04-17T22:07:28.648Z,15.43
2023-04-17T22:09:56.507Z,19.55
2023-04-17T22:12:23.790Z,14.82
2023-04-17T22:14:50.976Z,15.85
2023-04-17T22:17:18.199Z,14.90
2023-04-17T22:19:45.358Z,25.02
2023-04-17T22:22:12.531Z,21.83
2023-04-17T22:24:39.750Z,16.80
2023-04-17T22:27:07.060Z,22.05
2023-04-17T22:29:34.541Z,14.90
2023-04-17T22:32:02.128Z,18.77
2023-04-17T22:34:29.435Z,16.65
2023-04-17T22:36:56.655Z,19.02
2023-04-17T22:39:23.899Z,14.10
2023-04-17T22:41:51.298Z,17.83
2023-04-17T22:44:18.530Z,21.90
2023-04-17T22:46:45.840Z,18.50
2023-04-17T22:49:14.194Z,19.85
2023-04-17T22:51:41.441Z,16.60
2023-04-17T22:54:21.549Z,18.85
2023-04-17T22:56:50.255Z,17.90
2023-04-17T22:59:17.465Z,18.33
2023-04-17T23:01:44.771Z,17.52
2023-04-17T23:04:12.222Z,16.73
2023-04-17T23:06:39.687Z,22.10
2023-04-17T23:09:06.833Z,24.63
2023-04-17T23:11:34.380Z,21.15
2023-04-17T23:14:02.688Z,19.38
2023-04-17T23:16:30.562Z,16.77
2023-04-17T23:18:57.886Z,20.40
2023-04-17T23:21:26.079Z,16.55
2023-04-17T23:23:53.285Z,23.85
2023-04-17T23:26:20.807Z,21.55
2023-04-17T23:28:48.079Z,20.42
2023-04-17T23:31:15.355Z,21.73
2023-04-17T23:33:42.574Z,23.67
2023-04-17T23:36:09.738Z,20.10
2023-04-17T23:38:36.994Z,20.63
2023-04-17T23:41:04.204Z,25.23
2023-04-17T23:43:31.449Z,25.42
2023-04-17T23:46:00.356Z,27.50
2023-04-17T23:48:28.075Z,17.20
2023-04-17T23:50:55.620Z,21.48
2023-04-17T23:53:22.855Z,20.50
2023-04-17T23:55:50.171Z,23.77
2023-04-17T23:58:17.406Z,22.05
